createdAt,value
2022-12-22T00:03:32.884Z,3.42
2022-12-22T00:07:54.380Z,4.18
2022-12-22T00:12:15.042Z,3.63
2022-12-22T00:16:35.572Z,3.33
2022-12-22T00:20:56.270Z,3.67
2022-12-22T00:25:16.686Z,1.80
2022-12-22T00:29:37.421Z,2.97
2022-12-22T00:33:57.594Z,3.03
2022-12-22T00:38:18.515Z,2.83
2022-12-22T00:42:39.062Z,2.95
2022-12-22T00:47:03.278Z,2.42
2022-12-22T00:51:24.131Z,3.40
2022-12-22T00:55:49.613Z,3.53
2022-12-22T01:00:17.331Z,2.33
2022-12-22T01:04:37.928Z,2.47
2022-12-22T01:08:58.830Z,3.72
2022-12-22T01:13:19.568Z,2.80
2022-12-22T01:17:46.113Z,2.95
2022-12-22T01:22:06.649Z,2.25
2022-12-22T01:26:30.092Z,2.45
2022-12-22T01:30:50.625Z,4.25
2022-12-22T01:35:10.810Z,2.03
2022-12-22T01:39:31.444Z,3.35
2022-12-22T01:43:53.231Z,2.40
2022-12-22T01:48:13.757Z,2.85
2022-12-22T01:52:37.686Z,3.00
2022-12-22T01:56:59.027Z,2.05
2022-12-22T02:01:19.546Z,2.92
2022-12-22T02:05:40.436Z,2.92
2022-12-22T02:10:16.300Z,2.83
2022-12-22T02:14:52.919Z,2.42
2022-12-22T02:19:22.777Z,2.10
2022-12-22T02:23:58.797Z,1.67
2022-12-22T02:28:21.696Z,3.53
2022-12-22T02:32:43.472Z,2.80
2022-12-22T02:37:37.523Z,2.03
2022-12-22T02:42:29.522Z,2.15
2022-12-22T02:47:03.348Z,1.77
2022-12-22T02:51:28.738Z,1.77
2022-12-22T02:55:50.265Z,2.00
2022-12-22T03:00:10.720Z,3.42
2022-12-22T03:04:31.436Z,2.20
2022-12-22T03:08:51.685Z,2.03
2022-12-22T03:13:12.368Z,1.67
2022-12-22T03:17:33.292Z,2.13
2022-12-22T03:21:53.809Z,1.35
2022-12-22T03:25:55.640Z,2.70
2022-12-22T03:29:57.382Z,1.48
2022-12-22T03:33:59.459Z,2.05
2022-12-22T03:38:03.808Z,1.85
2022-12-22T03:42:24.268Z,3.00
2022-12-22T03:46:32.202Z,1.40
2022-12-22T03:50:34.447Z,1.50
2022-12-22T03:54:36.239Z,2.10
2022-12-22T03:58:38.099Z,2.17
2022-12-22T04:02:39.985Z,1.38
2022-12-22T04:06:42.490Z,1.77
2022-12-22T04:11:03.479Z,4.10
2022-12-22T04:15:05.763Z,1.60
2022-12-22T04:19:08.791Z,1.75
2022-12-22T04:23:10.625Z,1.83
2022-12-22T04:27:12.540Z,1.75
2022-12-22T04:31:14.331Z,1.30
2022-12-22T04:35:16.303Z,2.85
2022-12-22T04:39:18.029Z,2.10
2022-12-22T04:43:19.911Z,2.00
2022-12-22T04:47:21.899Z,2.28
2022-12-22T04:51:23.703Z,1.85
2022-12-22T04:55:25.418Z,1.13
2022-12-22T04:59:27.067Z,1.55
2022-12-22T05:03:28.800Z,1.40
2022-12-22T05:07:30.713Z,1.20
2022-12-22T05:11:32.377Z,2.63
2022-12-22T05:15:36.552Z,1.42
2022-12-22T05:19:38.527Z,1.52
2022-12-22T05:23:40.544Z,1.35
2022-12-22T05:27:47.049Z,1.58
2022-12-22T05:31:48.892Z,1.30
2022-12-22T05:35:50.689Z,2.65
2022-12-22T05:39:52.380Z,2.17
2022-12-22T05:43:54.337Z,1.35
2022-12-22T05:47:56.430Z,1.60
2022-12-22T05:51:58.562Z,2.17
2022-12-22T05:56:00.560Z,2.35
2022-12-22T06:00:04.385Z,1.98
2022-12-22T06:04:06.257Z,2.13
2022-12-22T06:08:08.146Z,1.52
2022-12-22T06:12:09.929Z,1.08
2022-12-22T06:16:12.618Z,1.10
2022-12-22T06:20:14.846Z,1.92
2022-12-22T06:24:16.639Z,1.35
2022-12-22T06:28:18.634Z,1.58
2022-12-22T06:32:23.304Z,1.30
2022-12-22T06:36:25.035Z,1.35
2022-12-22T06:40:27.017Z,1.58
2022-12-22T06:44:28.916Z,1.33
2022-12-22T06:48:30.733Z,1.17
2022-12-22T06:52:32.500Z,1.48
2022-12-22T06:56:34.343Z,1.30
2022-12-22T07:00:36.445Z,0.85
2022-12-22T07:04:38.311Z,1.52
2022-12-22T07:08:39.956Z,1.38
2022-12-22T07:12:41.746Z,1.67
2022-12-22T07:16:43.600Z,1.30
2022-12-22T07:20:45.710Z,1.40
2022-12-22T07:24:47.525Z,1.77
2022-12-22T07:28:49.235Z,1.45
2022-12-22T07:32:51.164Z,0.85
2022-12-22T07:36:52.894Z,1.42
2022-12-22T07:41:04.483Z,1.15
2022-12-22T07:45:07.497Z,2.15
2022-12-22T07:49:30.047Z,0.70
2022-12-22T07:53:33.941Z,1.00
2022-12-22T07:57:36.183Z,1.20
2022-12-22T08:01:38.544Z,0.88
2022-12-22T08:05:40.360Z,0.75
2022-12-22T08:09:42.039Z,1.38
2022-12-22T08:13:44.221Z,1.33
2022-12-22T08:17:46.058Z,1.00
2022-12-22T08:21:52.953Z,0.98
2022-12-22T08:26:20.364Z,1.15
2022-12-22T08:30:22.201Z,1.10
2022-12-22T08:34:24.319Z,2.03
2022-12-22T08:38:26.742Z,1.42
2022-12-22T08:42:28.990Z,1.38
2022-12-22T08:46:30.664Z,0.93
2022-12-22T08:50:32.367Z,1.85
2022-12-22T08:54:34.198Z,0.80
2022-12-22T08:58:36.013Z,1.92
2022-12-22T09:02:39.292Z,1.30
2022-12-22T09:06:41.696Z,1.30
2022-12-22T09:10:44.223Z,0.80
2022-12-22T09:14:46.017Z,3.72
2022-12-22T09:18:48.677Z,1.95
2022-12-22T09:22:50.355Z,0.80
2022-12-22T09:26:52.391Z,1.55
2022-12-22T09:30:56.390Z,0.70
2022-12-22T09:34:58.091Z,0.80
2022-12-22T09:39:05.834Z,1.67
2022-12-22T09:43:10.428Z,1.30
2022-12-22T09:47:22.062Z,1.35
2022-12-22T09:51:27.014Z,1.33
2022-12-22T09:55:40.960Z,0.70
2022-12-22T09:59:43.314Z,1.05
2022-12-22T10:04:00.746Z,1.83
2022-12-22T10:08:09.442Z,0.57
2022-12-22T10:12:16.412Z,0.75
2022-12-22T10:16:24.766Z,0.80
2022-12-22T10:20:29.796Z,0.88
2022-12-22T10:24:36.092Z,1.55
2022-12-22T10:28:47.770Z,0.93
2022-12-22T10:33:04.159Z,2.50
2022-12-22T10:41:16.642Z,0.95
2022-12-22T10:45:21.531Z,1.50
2022-12-22T10:53:51.129Z,1.10
2022-12-22T10:58:19.503Z,1.20
2022-12-22T11:02:21.431Z,1.55
2022-12-22T11:06:23.790Z,2.08
2022-12-22T11:10:45.803Z,0.90
2022-12-22T11:15:18.544Z,2.92
2022-12-22T11:19:39.180Z,0.90
2022-12-22T11:24:09.365Z,1.45
2022-12-22T11:28:23.527Z,2.08
2022-12-22T11:32:55.371Z,1.00
2022-12-22T11:37:25.116Z,2.88
2022-12-22T11:42:05.993Z,1.80
2022-12-22T11:46:37.265Z,1.08
2022-12-22T11:50:58.491Z,1.98
2022-12-22T11:55:28.690Z,0.80
2022-12-22T11:59:45.517Z,1.63
2022-12-22T12:04:19.833Z,2.65
2022-12-22T12:08:46.695Z,2.70
2022-12-22T12:13:03.516Z,1.45
2022-12-22T12:17:26.575Z,2.40
2022-12-22T12:21:52.010Z,0.90
2022-12-22T12:26:08.186Z,0.95
2022-12-22T12:34:44.535Z,1.42
2022-12-22T12:39:09.639Z,1.20
2022-12-22T12:43:16.532Z,1.13
2022-12-22T12:47:24.964Z,2.25
2022-12-22T12:51:48.335Z,0.93
2022-12-22T12:55:50.394Z,0.90
2022-12-22T12:59:57.973Z,0.70
2022-12-22T13:04:03.743Z,1.40
2022-12-22T13:08:11.150Z,1.38
2022-12-22T13:12:40.050Z,1.05
2022-12-22T13:16:41.898Z,0.80
2022-12-22T13:20:45.838Z,0.70
2022-12-22T13:24:49.492Z,1.23
2022-12-22T13:29:22.987Z,1.90
2022-12-22T13:33:29.723Z,3.22
2022-12-22T13:37:40.513Z,2.22
2022-12-22T13:41:48.703Z,2.58
2022-12-22T13:45:56.735Z,2.95
2022-12-22T13:50:08.923Z,3.65
2022-12-22T13:54:32.350Z,3.67
2022-12-22T13:58:39.118Z,1.50
2022-12-22T14:02:41.082Z,1.85
2022-12-22T14:06:43.165Z,2.78
2022-12-22T14:10:45.692Z,2.10
2022-12-22T14:14:49.579Z,4.63
2022-12-22T14:18:54.388Z,1.25
2022-12-22T14:23:19.149Z,1.50
2022-12-22T14:27:53.174Z,2.33
2022-12-22T14:32:02.930Z,6.03
2022-12-22T14:36:27.285Z,4.45
2022-12-22T14:40:35.021Z,2.50
2022-12-22T14:44:46.261Z,2.83
2022-12-22T14:48:48.238Z,7.82
2022-12-22T14:52:51.474Z,1.77
2022-12-22T14:56:57.771Z,1.88
2022-12-22T15:01:32.389Z,3.35
2022-12-22T15:05:39.177Z,6.18
2022-12-22T15:10:13.890Z,3.35
2022-12-22T15:14:04.203Z,3.22
2022-12-22T15:18:06.412Z,5.50
2022-12-22T15:22:08.635Z,7.70
2022-12-22T15:26:11.029Z,7.85
2022-12-22T15:30:16.758Z,12.82
2022-12-22T15:34:30.895Z,9.15
2022-12-22T15:38:38.487Z,16.00
2022-12-22T15:42:40.879Z,13.43
2022-12-22T15:46:45.214Z,20.67
2022-12-22T15:50:47.191Z,19.85
2022-12-22T15:54:52.511Z,21.08
2022-12-22T15:58:55.068Z,21.17
2022-12-22T16:03:01.411Z,24.10
2022-12-22T16:07:04.573Z,28.35
2022-12-22T16:11:08.459Z,22.67
2022-12-22T16:15:14.041Z,22.58
2022-12-22T16:19:19.447Z,29.73
2022-12-22T16:23:24.688Z,23.52
2022-12-22T16:27:29.573Z,25.37
2022-12-22T16:31:31.566Z,30.75
2022-12-22T16:35:33.369Z,24.17
2022-12-22T16:39:35.137Z,23.70
2022-12-22T16:43:51.285Z,24.52
2022-12-22T16:47:54.119Z,27.65
2022-12-22T16:51:56.340Z,26.98
2022-12-22T16:56:00.134Z,29.55
2022-12-22T17:00:01.920Z,27.33
2022-12-22T17:04:14.466Z,29.90
2022-12-22T17:08:23.929Z,29.90
2022-12-22T17:12:29.246Z,26.95
2022-12-22T17:16:31.516Z,23.90
2022-12-22T17:20:33.397Z,24.30
2022-12-22T17:24:35.414Z,26.77
2022-12-22T17:28:38.440Z,30.02
2022-12-22T17:32:40.200Z,27.33
2022-12-22T17:36:43.023Z,29.40
2022-12-22T17:40:45.639Z,28.70
2022-12-22T17:44:47.636Z,25.55
2022-12-22T17:48:49.946Z,26.40
2022-12-22T17:52:51.999Z,26.27
2022-12-22T17:57:00.059Z,23.70
2022-12-22T18:01:04.557Z,25.83
2022-12-22T18:05:06.712Z,30.38
2022-12-22T18:09:19.036Z,27.17
2022-12-22T18:13:24.500Z,25.63
2022-12-22T18:17:35.383Z,28.20
2022-12-22T18:21:37.656Z,26.85
2022-12-22T18:25:40.143Z,24.67
2022-12-22T18:29:42.439Z,26.17
2022-12-22T18:33:44.436Z,23.15
2022-12-22T18:37:46.548Z,25.13
2022-12-22T18:41:49.249Z,26.10
2022-12-22T18:45:51.066Z,24.92
2022-12-22T18:49:52.804Z,25.42
2022-12-22T18:53:55.122Z,24.25
2022-12-22T18:57:58.184Z,22.70
2022-12-22T19:02:04.315Z,21.00
2022-12-22T19:06:06.219Z,24.10
2022-12-22T19:10:13.669Z,24.95
2022-12-22T19:14:22.408Z,20.65
2022-12-22T19:18:27.254Z,20.67
2022-12-22T19:22:29.464Z,23.52
2022-12-22T19:26:31.136Z,23.17
2022-12-22T19:30:33.776Z,20.33
2022-12-22T19:34:35.933Z,17.90
2022-12-22T19:38:39.594Z,18.05
2022-12-22T19:42:44.131Z,20.23
2022-12-22T19:46:46.738Z,19.42
2022-12-22T19:50:49.235Z,20.45
2022-12-22T19:54:51.134Z,16.05
2022-12-22T19:58:54.419Z,19.42
2022-12-22T20:02:57.121Z,16.60
2022-12-22T20:06:59.157Z,19.98
2022-12-22T20:11:01.273Z,16.23
2022-12-22T20:15:16.928Z,14.90
2022-12-22T20:19:18.883Z,14.77
2022-12-22T20:23:23.599Z,14.80
2022-12-22T20:27:32.959Z,14.80
2022-12-22T20:31:34.742Z,14.70
2022-12-22T20:35:38.115Z,14.50
2022-12-22T20:39:47.381Z,14.68
2022-12-22T20:43:49.870Z,14.07
2022-12-22T20:47:52.876Z,16.00
2022-12-22T20:51:54.847Z,15.73
2022-12-22T20:55:57.082Z,13.50
2022-12-22T20:59:58.915Z,15.70
2022-12-22T21:04:00.707Z,12.43
2022-12-22T21:08:02.379Z,13.75
2022-12-22T21:12:04.533Z,13.07
2022-12-22T21:16:10.073Z,14.23
2022-12-22T21:20:31.849Z,13.85
2022-12-22T21:24:33.926Z,12.85
2022-12-22T21:28:38.640Z,10.80
2022-12-22T21:32:40.971Z,13.65
2022-12-22T21:36:45.239Z,12.50
2022-12-22T21:40:47.702Z,11.88
2022-12-22T21:44:51.810Z,10.40
2022-12-22T21:48:53.664Z,11.15
2022-12-22T21:52:55.805Z,11.88
2022-12-22T21:56:58.584Z,11.43
2022-12-22T22:01:00.487Z,13.15
2022-12-22T22:05:02.221Z,11.02
2022-12-22T22:09:05.295Z,10.48
2022-12-22T22:13:07.951Z,9.88
2022-12-22T22:17:11.598Z,9.70
2022-12-22T22:21:15.624Z,9.68
2022-12-22T22:25:19.057Z,9.98
2022-12-22T22:29:20.699Z,8.82
2022-12-22T22:33:23.081Z,10.13
2022-12-22T22:37:25.106Z,11.48
2022-12-22T22:41:28.747Z,11.13
2022-12-22T22:45:30.611Z,8.90
2022-12-22T22:49:32.539Z,10.45
2022-12-22T22:53:35.788Z,8.50
2022-12-22T22:57:37.680Z,8.32
2022-12-22T23:01:40.458Z,9.00
2022-12-22T23:05:42.328Z,12.50
2022-12-22T23:09:44.462Z,7.85
2022-12-22T23:13:46.380Z,7.70
2022-12-22T23:17:48.257Z,8.95
2022-12-22T23:21:50.094Z,7.22
2022-12-22T23:25:53.861Z,7.53
2022-12-22T23:29:56.676Z,8.48
2022-12-22T23:33:58.632Z,6.95
2022-12-22T23:38:00.498Z,8.30
2022-12-22T23:42:02.331Z,15.05
2022-12-22T23:46:13.017Z,7.80
2022-12-22T23:50:14.952Z,6.47
2022-12-22T23:54:16.943Z,5.93
2022-12-22T23:58:19.572Z,8.27
